Robert Gray Army Air Field Airport
KGRK : now visible

Airfield :











YOU CAN JOIN US ON...

 
LOGIN :

Register | Disclaimer

   EN    FR    IT 

 









Legend :    VFR   Marginal VFR   IFR   Intensive IFR   Very Intensive IFR
Visi :
Ceiling :
>= 8 km
>= 3000ft
5 to 8 km
1000 to 3000 ft
1500m to 5 km
500 to 1000 ft
800 to 1500m
200 to 500 ft
< 800m
< 200 ft
Symbols :   Thunderstorms  Fog  Heavy snow  Heavy precipitations  Wind > 20 kt






- Airport Elevation : 1015 ft
- IATA code : GRK


KGRK - Robert Gray Army Air Field

CURRENT METAR :
  • 100658Z AUTO 01008KT 10SM CLR 17/16 A2996 RMK AO2 SLP138 T01650157 PNO

EXPIRED METARs :
  • 100558Z AUTO 36007KT 10SM CLR 17/16 A2996 RMK AO2 SLP137 T01680158 10193 20167 402920167 50005 PNO
  • 100458Z AUTO 00000KT 10SM BKN140 BKN240 17/16 A2997 RMK AO2 SLP141 T01740162 PNO

TAF TAF KGRK
Valid from the 10 at 00:00 until the 11 at 06:00 UTC


100000Z 1000/1106 02009KT 9999 -RA BKN100 QNH2984INS
BECMG 1006/1007 36006KT 8000 BR BKN020 QNH2991INS
BECMG 1009/1010 05009KT 9999 NSW BKN050 QNH2997INS
BECMG 1100/1101 12010G15KT 9999 SKC QNH2997INS TX22/1022Z TN14/1012Z



MET'MAP, your aeronautical weather chart ! - Copyright ORBIFLY December 2007 - Disclaimer

ORBIFLY MET'MAP TEAM :

Programming & Development : Alexandra Zaïnal
Concept & original design : Baudouin d'Aumeries
Assistance for programming : Marc-Olivier Méhu
Technical & hardware support : Manuel Goepfert

Contact : metmap@orbifly.com




SOURCES & CREDITS :

   NOAA       Earth
Advisory